Disclaimer

Please do not use the information listed here in-flight or in-navigation, as they are not provided to us by the airports but are provided by volunteers, so they might be outdated.

Search


Regions


Airport information page

Radio informations:
Tower (TWR) - 125.9 MHz
INFO - 127.9 MHz

Airport informations:
Latitude: 16° 06' 17.34" S
Longitude: 033° 38' 24.65" E
Elevation: 525 feet - 160 meters
Operating hours: Remarks
Operating agency: Civil government, landing fees and diplomatic clearance may be required
Timezone: UTC+2
Fuel: Jet A1+, Jet A1 with icing inhibitor.

100/130 MIL Spec, low lead, aviation gasoline (BLUE)

Runway information:
01/19 - 8225 x 148 feet< - >2507 x 45 meters

Recent METARs:
FQTT 130400Z 13008KT 9999 SCT020 24/17 Q1019

Airport on the map: